JA86AE RJFK-RJFM

Flight info

Callsign JA86AE
Flight time 0h 30m
Altitude 9000
Route KGE MZE
Aircraft TBM9/L-SDFGRWY/S

Departure

Time 2026-05-01 08:23
Airport Kagoshima Airport (RJFK)

Arrival

Time 2026-05-01 08:53
Airport Miyazaki Airport (RJFM)
Time Latitude Longitude Altitude Speed Heading
2026-05-01 08:01 31.79642 130.72071 872 ft 0 kts 329°
2026-05-01 08:19 31.79659 130.72165 870 ft 13 kts 90°
2026-05-01 08:19 31.79576 130.72230 869 ft 17 kts 151°
2026-05-01 08:19 31.79464 130.72305 869 ft 20 kts 149°
2026-05-01 08:19 31.79327 130.72397 867 ft 25 kts 149°
2026-05-01 08:20 31.79166 130.72507 867 ft 23 kts 149°
2026-05-01 08:20 31.79133 130.72630 857 ft 8 kts 62°
2026-05-01 08:20 31.79135 130.72633 858 ft 0 kts 60°
2026-05-01 08:21 31.79135 130.72634 858 ft 1 kts 59°
2026-05-01 08:21 31.79155 130.72672 861 ft 13 kts 57°
2026-05-01 08:22 31.79217 130.72685 862 ft 0 kts 334°
2026-05-01 08:22 31.79408 130.72563 869 ft 61 kts 327°
2026-05-01 08:22 31.79904 130.72268 1070 ft 94 kts 332°
2026-05-01 08:23 31.80571 130.71988 1449 ft 112 kts 337°
2026-05-01 08:23 31.81333 130.72334 2156 ft 137 kts 38°
2026-05-01 08:23 31.81569 130.73509 2762 ft 164 kts 97°
2026-05-01 08:23 31.81241 130.74808 3352 ft 164 kts 84°
2026-05-01 08:24 31.81637 130.75899 3925 ft 131 kts 19°
2026-05-01 08:24 31.82391 130.76083 4612 ft 107 kts 347°
2026-05-01 08:24 31.83114 130.76036 5234 ft 101 kts 334°
2026-05-01 08:24 31.83770 130.75778 5850 ft 99 kts 324°
2026-05-01 08:25 31.84325 130.75329 6461 ft 97 kts 313°
2026-05-01 08:25 31.84855 130.74826 7047 ft 98 kts 315°
2026-05-01 08:25 31.85406 130.74338 7645 ft 100 kts 317°
2026-05-01 08:25 31.85965 130.73866 8244 ft 101 kts 319°
2026-05-01 08:26 31.86544 130.73388 8907 ft 105 kts 320°
2026-05-01 08:26 31.87257 130.72808 8989 ft 144 kts 322°
2026-05-01 08:26 31.88180 130.72078 8992 ft 173 kts 323°
2026-05-01 08:26 31.89233 130.71251 8991 ft 189 kts 323°
2026-05-01 08:27 31.90353 130.70366 8987 ft 198 kts 323°
2026-05-01 08:27 31.91505 130.69448 8993 ft 202 kts 323°
2026-05-01 08:27 31.92679 130.68510 8993 ft 204 kts 323°
2026-05-01 08:27 31.93853 130.67571 8992 ft 205 kts 323°
2026-05-01 08:28 31.95033 130.66626 8995 ft 205 kts 323°
2026-05-01 08:28 31.96180 130.65628 8988 ft 205 kts 316°
2026-05-01 08:28 31.97021 130.64275 8979 ft 207 kts 300°
2026-05-01 08:28 31.97472 130.62659 8978 ft 218 kts 284°
2026-05-01 08:29 31.97446 130.60826 8983 ft 232 kts 267°
2026-05-01 08:29 31.96834 130.58998 8985 ft 250 kts 247°
2026-05-01 08:29 31.95594 130.57471 8983 ft 269 kts 224°
2026-05-01 08:29 31.93820 130.56607 8975 ft 287 kts 199°
2026-05-01 08:30 31.91777 130.56686 8976 ft 303 kts 173°
2026-05-01 08:30 31.89845 130.57760 8971 ft 313 kts 146°
2026-05-01 08:30 31.88358 130.59635 8973 ft 315 kts 125°
2026-05-01 08:30 31.87176 130.61802 8978 ft 313 kts 122°
2026-05-01 08:31 31.85909 130.63893 8992 ft 314 kts 129°
2026-05-01 08:31 31.84485 130.65832 8984 ft 313 kts 133°
2026-05-01 08:31 31.83057 130.67770 8983 ft 314 kts 130°
2026-05-01 08:31 31.81702 130.69784 8976 ft 314 kts 126°
2026-05-01 08:32 31.80716 130.72066 8968 ft 313 kts 108°
2026-05-01 08:32 31.80219 130.74540 8969 ft 309 kts 92°
2026-05-01 08:32 31.80231 130.77045 8966 ft 304 kts 78°
2026-05-01 08:32 31.80537 130.79465 8974 ft 303 kts 76°
2026-05-01 08:33 31.80823 130.81930 8971 ft 304 kts 77°
2026-05-01 08:33 31.81095 130.84385 8972 ft 303 kts 77°
2026-05-01 08:33 31.81382 130.86833 8973 ft 303 kts 76°
2026-05-01 08:33 31.81671 130.89295 8978 ft 303 kts 77°
2026-05-01 08:34 31.81956 130.91758 8976 ft 303 kts 76°
2026-05-01 08:34 31.82241 130.94215 8983 ft 303 kts 77°
2026-05-01 08:34 31.82523 130.96671 8979 ft 303 kts 77°
2026-05-01 08:34 31.82807 130.99136 8983 ft 304 kts 76°
2026-05-01 08:35 31.83088 131.01601 8976 ft 304 kts 77°
2026-05-01 08:35 31.83369 131.04071 8979 ft 304 kts 77°
2026-05-01 08:35 31.83649 131.06534 8978 ft 304 kts 76°
2026-05-01 08:35 31.83930 131.08966 8961 ft 304 kts 76°
2026-05-01 08:36 31.84213 131.11433 8956 ft 304 kts 76°
2026-05-01 08:36 31.84494 131.13901 8948 ft 304 kts 77°
2026-05-01 08:36 31.84771 131.16374 8852 ft 307 kts 77°
2026-05-01 08:36 31.85056 131.18902 8497 ft 316 kts 77°
2026-05-01 08:37 31.85339 131.21483 8074 ft 318 kts 77°
2026-05-01 08:37 31.85622 131.24031 7665 ft 312 kts 77°
2026-05-01 08:37 31.85918 131.26550 7242 ft 310 kts 77°
2026-05-01 08:37 31.86204 131.29053 6828 ft 307 kts 77°
2026-05-01 08:38 31.86487 131.31534 6416 ft 306 kts 77°
2026-05-01 08:38 31.86754 131.34021 5997 ft 306 kts 77°
2026-05-01 08:38 31.87025 131.36487 5586 ft 304 kts 78°
2026-05-01 08:38 31.87308 131.38951 5184 ft 303 kts 78°
2026-05-01 08:39 31.87588 131.41409 4783 ft 303 kts 78°
2026-05-01 08:39 31.87717 131.43883 4422 ft 304 kts 92°
2026-05-01 08:39 31.87336 131.46286 4400 ft 294 kts 102°
2026-05-01 08:39 31.86888 131.48611 4390 ft 287 kts 101°
2026-05-01 08:40 31.86087 131.53101 4382 ft 278 kts 91°
2026-05-01 08:40 31.86307 131.55321 4391 ft 271 kts 71°
2026-05-01 08:40 31.86387 131.57547 4405 ft 278 kts 101°
2026-05-01 08:41 31.85577 131.59598 4418 ft 277 kts 125°
2026-05-01 08:41 31.84541 131.61488 4418 ft 272 kts 122°
2026-05-01 08:41 31.83804 131.63550 4410 ft 270 kts 104°
2026-05-01 08:41 31.83432 131.65674 4418 ft 268 kts 98°
2026-05-01 08:42 31.83110 131.67837 4426 ft 268 kts 99°
2026-05-01 08:42 31.82707 131.69968 4432 ft 264 kts 103°
2026-05-01 08:42 31.82270 131.72038 4430 ft 259 kts 103°
2026-05-01 08:42 31.81861 131.74084 4438 ft 256 kts 101°
2026-05-01 08:43 31.81605 131.76134 4439 ft 251 kts 84°
2026-05-01 08:43 31.82052 131.78054 4445 ft 237 kts 56°
2026-05-01 08:43 31.83015 131.79521 4450 ft 219 kts 33°
2026-05-01 08:43 31.83828 131.80179 4450 ft 209 kts 18°
2026-05-01 08:44 31.85161 131.80692 4450 ft 197 kts 359°
2026-05-01 08:44 31.86913 131.80554 4447 ft 184 kts 337°
2026-05-01 08:44 31.87689 131.80189 4450 ft 179 kts 327°
2026-05-01 08:44 31.88691 131.79335 4273 ft 176 kts 312°
2026-05-01 08:45 31.89413 131.78204 4044 ft 171 kts 298°
2026-05-01 08:45 31.89826 131.76899 3816 ft 171 kts 284°
2026-05-01 08:45 31.89911 131.75504 3589 ft 173 kts 270°
2026-05-01 08:45 31.89795 131.74085 3362 ft 174 kts 270°
2026-05-01 08:46 31.89697 131.72664 3122 ft 174 kts 269°
2026-05-01 08:46 31.89597 131.71248 2906 ft 172 kts 269°
2026-05-01 08:46 31.89499 131.69882 2741 ft 170 kts 269°
2026-05-01 08:46 31.89400 131.68476 2507 ft 171 kts 269°
2026-05-01 08:47 31.89301 131.67093 2281 ft 171 kts 269°
2026-05-01 08:47 31.89203 131.65691 2051 ft 169 kts 268°
2026-05-01 08:47 31.89105 131.64346 2004 ft 164 kts 269°
2026-05-01 08:47 31.89017 131.63027 1989 ft 160 kts 269°
2026-05-01 08:48 31.88918 131.61728 1988 ft 157 kts 269°
2026-05-01 08:48 31.88837 131.60509 2000 ft 147 kts 270°
2026-05-01 08:48 31.88747 131.59319 1990 ft 145 kts 270°
2026-05-01 08:48 31.88668 131.58148 1959 ft 144 kts 269°
2026-05-01 08:49 31.88581 131.56997 1784 ft 134 kts 271°
2026-05-01 08:49 31.88509 131.55939 1609 ft 127 kts 271°
2026-05-01 08:49 31.88436 131.54985 1443 ft 107 kts 271°
2026-05-01 08:49 31.88381 131.54178 1317 ft 85 kts 272°
2026-05-01 08:50 31.88335 131.53572 1214 ft 69 kts 271°
2026-05-01 08:50 31.88293 131.53017 1126 ft 68 kts 270°
2026-05-01 08:50 31.88253 131.52454 1032 ft 70 kts 270°
2026-05-01 08:50 31.88213 131.51884 941 ft 70 kts 270°
2026-05-01 08:51 31.88173 131.51327 857 ft 66 kts 271°
2026-05-01 08:51 31.88136 131.50814 779 ft 59 kts 271°
2026-05-01 08:51 31.88101 131.50344 708 ft 60 kts 270°
2026-05-01 08:51 31.88067 131.49820 634 ft 68 kts 270°
2026-05-01 08:52 31.88028 131.49264 551 ft 68 kts 270°
2026-05-01 08:52 31.87989 131.48721 470 ft 66 kts 270°
2026-05-01 08:52 31.87950 131.48190 391 ft 64 kts 270°
2026-05-01 08:52 31.87913 131.47680 319 ft 60 kts 272°
2026-05-01 08:53 31.87881 131.47219 251 ft 55 kts 271°
2026-05-01 08:53 31.87847 131.46767 175 ft 54 kts 273°
2026-05-01 08:53 31.87821 131.46355 106 ft 49 kts 270°
2026-05-01 08:53 31.87790 131.45931 49 ft 54 kts 270°
2026-05-01 08:54 31.87760 131.45505 32 ft 48 kts 271°
2026-05-01 08:54 31.87737 131.45136 26 ft 40 kts 268°
2026-05-01 08:54 31.87716 131.44883 26 ft 22 kts 266°
2026-05-01 08:54 31.87707 131.44760 26 ft 10 kts 266°
2026-05-01 08:55 31.87701 131.44684 26 ft 13 kts 266°
2026-05-01 08:55 31.87671 131.44592 25 ft 11 kts 207°
2026-05-01 08:55 31.87589 131.44587 28 ft 12 kts 178°
2026-05-01 08:55 31.87522 131.44539 29 ft 12 kts 262°
2026-05-01 08:56 31.87515 131.44442 29 ft 13 kts 261°
2026-05-01 08:56 31.87505 131.44294 29 ft 24 kts 266°
2026-05-01 08:56 31.87490 131.44069 29 ft 28 kts 265°
2026-05-01 08:56 31.87476 131.43861 29 ft 23 kts 264°
2026-05-01 08:57 31.87464 131.43683 29 ft 20 kts 265°
2026-05-01 08:57 31.87430 131.43624 29 ft 10 kts 204°
2026-05-01 08:57 31.87405 131.43594 29 ft 0 kts 221°